createdAt,value
2022-11-10T00:00:37.009Z,1.98
2022-11-10T00:03:23.658Z,2.60
2022-11-10T00:06:10.279Z,2.97
2022-11-10T00:08:55.705Z,2.60
2022-11-10T00:11:42.401Z,2.55
2022-11-10T00:14:46.296Z,2.55
2022-11-10T00:17:32.143Z,2.35
2022-11-10T00:20:17.597Z,2.45
2022-11-10T00:23:03.265Z,2.50
2022-11-10T00:25:48.804Z,2.78
2022-11-10T00:28:34.372Z,2.15
2022-11-10T00:31:19.872Z,2.70
2022-11-10T00:34:06.458Z,2.15
2022-11-10T00:36:51.897Z,2.67
2022-11-10T00:39:37.353Z,2.30
2022-11-10T00:42:22.696Z,2.13
2022-11-10T00:45:09.936Z,3.00
2022-11-10T00:47:55.369Z,3.35
2022-11-10T00:50:40.826Z,2.50
2022-11-10T00:53:26.554Z,2.13
2022-11-10T00:56:12.034Z,2.67
2022-11-10T00:58:58.100Z,2.05
2022-11-10T01:01:43.574Z,2.80
2022-11-10T01:04:29.009Z,2.80
2022-11-10T01:07:14.433Z,2.50
2022-11-10T01:10:00.316Z,2.67
2022-11-10T01:12:45.878Z,3.47
2022-11-10T01:15:31.482Z,2.92
2022-11-10T01:18:16.858Z,2.60
2022-11-10T01:21:02.403Z,2.17
2022-11-10T01:23:48.293Z,2.88
2022-11-10T01:26:33.769Z,3.28
2022-11-10T01:29:19.294Z,2.10
2022-11-10T01:32:04.922Z,1.92
2022-11-10T01:34:50.424Z,2.00
2022-11-10T01:37:36.116Z,2.10
2022-11-10T01:40:21.633Z,2.25
2022-11-10T01:43:09.615Z,2.05
2022-11-10T01:46:02.550Z,2.63
2022-11-10T01:48:59.430Z,2.35
2022-11-10T01:51:57.154Z,2.78
2022-11-10T01:54:47.244Z,2.67
2022-11-10T01:57:33.102Z,2.13
2022-11-10T02:00:20.170Z,2.20
2022-11-10T02:03:27.482Z,2.30
2022-11-10T02:06:15.328Z,2.50
2022-11-10T02:09:00.972Z,2.13
2022-11-10T02:11:47.847Z,2.47
2022-11-10T02:14:33.748Z,2.83
2022-11-10T02:17:19.542Z,2.53
2022-11-10T02:20:10.845Z,2.22
2022-11-10T02:22:56.399Z,2.92
2022-11-10T02:25:42.696Z,2.03
2022-11-10T02:28:28.604Z,2.80
2022-11-10T02:31:14.149Z,2.58
2022-11-10T02:33:59.436Z,2.00
2022-11-10T02:36:44.893Z,2.28
2022-11-10T02:39:30.274Z,2.22
2022-11-10T02:42:15.553Z,2.58
2022-11-10T02:45:01.200Z,2.00
2022-11-10T02:47:46.565Z,2.33
2022-11-10T02:50:31.802Z,2.13
2022-11-10T02:53:20.270Z,2.50
2022-11-10T02:56:06.835Z,2.33
2022-11-10T02:58:52.265Z,2.53
2022-11-10T03:01:38.043Z,2.25
2022-11-10T03:04:23.834Z,3.20
2022-11-10T03:07:09.232Z,2.95
2022-11-10T03:09:55.025Z,3.58
2022-11-10T03:12:40.462Z,3.15
2022-11-10T03:15:27.090Z,3.53
2022-11-10T03:18:12.908Z,2.95
2022-11-10T03:20:58.486Z,3.42
2022-11-10T03:23:43.905Z,3.30
2022-11-10T03:26:29.607Z,2.90
2022-11-10T03:29:15.299Z,2.95
2022-11-10T03:32:00.731Z,2.67
2022-11-10T03:34:46.053Z,2.90
2022-11-10T03:37:31.534Z,2.80
2022-11-10T03:40:16.979Z,3.42
2022-11-10T03:43:02.449Z,3.55
2022-11-10T03:45:48.006Z,3.53
2022-11-10T03:48:33.722Z,3.13
2022-11-10T03:51:19.056Z,3.22
2022-11-10T03:54:04.710Z,3.30
2022-11-10T03:56:50.011Z,3.10
2022-11-10T03:59:36.383Z,3.65
2022-11-10T04:02:22.183Z,3.78
2022-11-10T04:05:27.581Z,3.65
2022-11-10T04:08:37.273Z,4.13
2022-11-10T04:11:41.847Z,3.67
2022-11-10T04:14:48.541Z,3.55
2022-11-10T04:17:34.237Z,3.75
2022-11-10T04:20:19.743Z,3.33
2022-11-10T04:23:24.382Z,2.67
2022-11-10T04:26:28.814Z,3.67
2022-11-10T04:29:16.580Z,3.22
2022-11-10T04:32:02.348Z,3.22
2022-11-10T04:34:47.664Z,4.00
2022-11-10T04:37:33.135Z,3.28
2022-11-10T04:40:18.590Z,3.15
2022-11-10T04:43:03.975Z,2.80
2022-11-10T04:45:49.855Z,3.33
2022-11-10T04:48:36.087Z,3.53
2022-11-10T04:51:25.177Z,2.85
2022-11-10T04:54:11.966Z,2.83
2022-11-10T04:56:57.618Z,2.90
2022-11-10T04:59:43.128Z,2.90
2022-11-10T05:02:28.495Z,2.92
2022-11-10T05:05:14.005Z,2.85
2022-11-10T05:08:00.178Z,2.70
2022-11-10T05:10:48.018Z,2.58
2022-11-10T05:13:36.950Z,3.10
2022-11-10T05:16:22.571Z,2.50
2022-11-10T05:19:08.652Z,2.67
2022-11-10T05:21:54.470Z,3.40
2022-11-10T05:24:40.552Z,2.92
2022-11-10T05:27:26.060Z,2.45
2022-11-10T05:30:11.885Z,2.72
2022-11-10T05:32:57.942Z,2.67
2022-11-10T05:35:44.171Z,2.90
2022-11-10T05:38:29.957Z,3.15
2022-11-10T05:41:15.420Z,2.60
2022-11-10T05:44:00.931Z,2.90
2022-11-10T05:46:46.571Z,2.85
2022-11-10T05:49:31.905Z,3.00
2022-11-10T05:52:17.510Z,5.20
2022-11-10T05:55:03.201Z,4.22
2022-11-10T05:57:50.591Z,4.65
2022-11-10T06:00:36.697Z,4.93
2022-11-10T06:03:23.030Z,4.78
2022-11-10T06:06:09.046Z,4.35
2022-11-10T06:08:56.492Z,3.95
2022-11-10T06:11:42.286Z,4.45
2022-11-10T06:14:27.814Z,3.88
2022-11-10T06:17:13.909Z,3.85
2022-11-10T06:19:59.431Z,4.65
2022-11-10T06:23:06.779Z,4.20
2022-11-10T06:25:52.612Z,4.05
2022-11-10T06:28:38.582Z,4.07
2022-11-10T06:31:24.080Z,4.05
2022-11-10T06:34:09.700Z,3.33
2022-11-10T06:36:55.260Z,3.42
2022-11-10T06:39:40.819Z,2.25
2022-11-10T06:42:26.358Z,2.85
2022-11-10T06:45:11.950Z,3.15
2022-11-10T06:48:10.097Z,3.30
2022-11-10T06:50:55.815Z,3.38
2022-11-10T06:53:42.225Z,3.67
2022-11-10T06:56:27.777Z,3.67
2022-11-10T06:59:13.998Z,3.67
2022-11-10T07:01:59.533Z,3.03
2022-11-10T07:04:45.403Z,2.03
2022-11-10T07:07:31.284Z,2.65
2022-11-10T07:10:16.920Z,3.28
2022-11-10T07:13:04.837Z,2.20
2022-11-10T07:15:50.710Z,2.40
2022-11-10T07:18:37.301Z,2.45
2022-11-10T07:21:23.205Z,2.35
2022-11-10T07:24:09.000Z,2.03
2022-11-10T07:26:54.738Z,2.03
2022-11-10T07:29:40.365Z,1.92
2022-11-10T07:32:25.763Z,2.90
2022-11-10T07:35:11.814Z,2.15
2022-11-10T07:37:58.855Z,2.33
2022-11-10T07:40:44.499Z,2.15
2022-11-10T07:43:30.463Z,2.92
2022-11-10T07:46:16.199Z,3.00
2022-11-10T07:49:01.767Z,3.08
2022-11-10T07:51:47.464Z,3.22
2022-11-10T07:54:32.721Z,3.30
2022-11-10T07:57:18.268Z,4.85
2022-11-10T08:00:04.421Z,4.38
2022-11-10T08:02:50.953Z,7.10
2022-11-10T08:05:36.708Z,6.55
2022-11-10T08:08:22.507Z,7.72
2022-11-10T08:11:08.147Z,6.78
2022-11-10T08:13:53.925Z,7.20
2022-11-10T08:16:39.373Z,6.95
2022-11-10T08:19:24.962Z,6.22
2022-11-10T08:22:10.340Z,6.50
2022-11-10T08:24:55.748Z,6.20
2022-11-10T08:27:41.319Z,6.35
2022-11-10T08:30:27.890Z,7.13
2022-11-10T08:33:16.855Z,6.10
2022-11-10T08:36:02.908Z,7.57
2022-11-10T08:38:48.644Z,6.07
2022-11-10T08:41:34.353Z,6.60
2022-11-10T08:44:20.963Z,6.00
2022-11-10T08:47:06.952Z,5.90
2022-11-10T08:49:52.841Z,5.78
2022-11-10T08:52:38.797Z,5.70
2022-11-10T08:55:24.680Z,4.55
2022-11-10T08:58:16.445Z,4.30
2022-11-10T09:01:02.337Z,4.43
2022-11-10T09:03:47.838Z,4.05
2022-11-10T09:06:33.479Z,3.88
2022-11-10T09:09:19.658Z,3.80
2022-11-10T09:12:05.825Z,4.38
2022-11-10T09:14:51.713Z,4.15
2022-11-10T09:17:38.257Z,4.63
2022-11-10T09:20:23.938Z,3.17
2022-11-10T09:23:13.180Z,3.85
2022-11-10T09:25:58.871Z,2.13
2022-11-10T09:28:44.591Z,2.08
2022-11-10T09:31:30.192Z,3.17
2022-11-10T09:34:15.787Z,3.00
2022-11-10T09:37:01.491Z,2.15
2022-11-10T09:39:47.014Z,2.50
2022-11-10T09:42:38.372Z,3.05
2022-11-10T09:45:36.397Z,3.05
2022-11-10T09:48:33.358Z,2.30
2022-11-10T09:51:26.911Z,2.33
2022-11-10T09:54:43.622Z,2.67
2022-11-10T09:57:30.254Z,3.15
2022-11-10T10:00:18.445Z,3.20
2022-11-10T10:03:06.391Z,3.00
2022-11-10T10:06:12.850Z,2.85
2022-11-10T10:09:39.367Z,3.25
2022-11-10T10:12:47.944Z,2.50
2022-11-10T10:15:45.001Z,2.22
2022-11-10T10:18:50.593Z,2.80
2022-11-10T10:21:44.330Z,2.25
2022-11-10T10:24:32.443Z,1.70
2022-11-10T10:27:26.417Z,2.20
2022-11-10T10:30:19.115Z,2.53
2022-11-10T10:33:21.008Z,1.80
2022-11-10T10:36:16.524Z,1.75
2022-11-10T10:39:16.280Z,2.03
2022-11-10T10:42:01.931Z,2.78
2022-11-10T10:45:13.855Z,1.85
2022-11-10T10:48:01.359Z,1.75
2022-11-10T10:50:49.149Z,1.98
2022-11-10T10:53:47.651Z,1.67
2022-11-10T10:56:33.644Z,1.65
2022-11-10T10:59:22.480Z,1.90
2022-11-10T11:02:24.819Z,2.13
2022-11-10T11:05:19.994Z,2.00
2022-11-10T11:08:05.659Z,1.65
2022-11-10T11:10:51.009Z,1.17
2022-11-10T11:13:36.988Z,2.08
2022-11-10T11:16:22.630Z,1.45
2022-11-10T11:19:09.437Z,1.83
2022-11-10T11:22:19.655Z,1.60
2022-11-10T11:25:21.010Z,1.42
2022-11-10T11:28:59.016Z,1.80
2022-11-10T11:32:18.538Z,1.27
2022-11-10T11:35:39.455Z,1.80
2022-11-10T11:38:35.947Z,1.10
2022-11-10T11:41:49.700Z,1.15
2022-11-10T11:45:15.690Z,1.35
2022-11-10T11:48:48.452Z,0.80
2022-11-10T11:52:05.465Z,0.88
2022-11-10T11:55:22.918Z,1.05
2022-11-10T11:58:45.236Z,0.90
2022-11-10T12:02:13.102Z,1.02
2022-11-10T12:05:32.069Z,1.00
2022-11-10T12:08:41.902Z,0.50
2022-11-10T12:11:30.201Z,1.08
2022-11-10T12:14:48.113Z,1.45
2022-11-10T12:17:56.312Z,1.13
2022-11-10T12:21:20.553Z,0.90
2022-11-10T12:24:38.216Z,1.00
2022-11-10T12:27:42.161Z,1.00
2022-11-10T12:30:33.162Z,0.82
2022-11-10T12:34:04.082Z,1.00
2022-11-10T12:37:00.453Z,1.30
2022-11-10T12:42:39.167Z,1.13
2022-11-10T12:45:21.610Z,0.63
2022-11-10T12:48:11.914Z,0.88
2022-11-10T12:51:25.257Z,0.82
2022-11-10T12:54:16.874Z,0.80
2022-11-10T12:57:17.783Z,1.10
2022-11-10T13:00:17.309Z,0.73
2022-11-10T13:03:06.050Z,0.50
2022-11-10T13:06:03.931Z,0.57
2022-11-10T13:08:50.634Z,0.95
2022-11-10T13:11:37.523Z,0.95
2022-11-10T13:14:31.205Z,0.80
2022-11-10T13:17:29.334Z,1.02
2022-11-10T13:20:39.848Z,1.55
2022-11-10T13:23:40.206Z,1.10
2022-11-10T13:26:43.732Z,1.00
2022-11-10T13:29:47.339Z,1.15
2022-11-10T13:32:34.825Z,0.80
2022-11-10T13:35:29.524Z,0.90
2022-11-10T13:38:37.485Z,0.63
2022-11-10T13:41:26.156Z,1.08
2022-11-10T13:44:24.971Z,0.90
2022-11-10T13:47:10.301Z,0.90
2022-11-10T13:50:10.525Z,0.90
2022-11-10T13:53:36.467Z,0.75
2022-11-10T13:56:53.085Z,0.82
2022-11-10T14:00:01.352Z,0.52
2022-11-10T14:03:02.126Z,0.57
2022-11-10T14:06:27.456Z,1.00
2022-11-10T14:09:32.171Z,0.88
2022-11-10T14:12:34.320Z,0.80
2022-11-10T14:18:29.207Z,1.30
2022-11-10T14:21:54.009Z,0.82
2022-11-10T14:25:14.321Z,0.68
2022-11-10T14:28:00.044Z,0.80
2022-11-10T14:30:52.562Z,1.08
2022-11-10T14:33:38.630Z,0.88
2022-11-10T14:36:25.192Z,1.05
2022-11-10T14:39:16.329Z,0.65
2022-11-10T14:42:04.947Z,0.98
2022-11-10T14:44:50.692Z,0.80
2022-11-10T14:47:37.586Z,0.80
2022-11-10T14:50:35.868Z,0.68
2022-11-10T14:53:40.875Z,0.80
2022-11-10T14:56:31.375Z,0.85
2022-11-10T14:59:18.999Z,0.70
2022-11-10T15:02:11.600Z,0.80
2022-11-10T15:07:45.310Z,0.98
2022-11-10T15:10:53.285Z,0.85
2022-11-10T15:13:39.786Z,0.70
2022-11-10T15:16:36.208Z,0.70
2022-11-10T15:19:30.392Z,0.75
2022-11-10T15:22:35.825Z,0.98
2022-11-10T15:25:23.873Z,0.88
2022-11-10T15:28:15.071Z,1.00
2022-11-10T15:31:23.319Z,0.82
2022-11-10T15:34:41.664Z,1.02
2022-11-10T15:37:31.246Z,0.73
2022-11-10T15:40:34.565Z,0.90
2022-11-10T15:43:22.657Z,0.60
2022-11-10T15:46:18.803Z,0.90
2022-11-10T15:49:10.541Z,1.08
2022-11-10T15:52:02.807Z,0.80
2022-11-10T15:54:50.980Z,0.60
2022-11-10T15:57:36.675Z,0.70
2022-11-10T16:00:22.462Z,0.82
2022-11-10T16:03:12.130Z,0.93
2022-11-10T16:05:57.637Z,0.60
2022-11-10T16:08:43.939Z,1.00
2022-11-10T16:11:31.160Z,1.40
2022-11-10T16:14:17.957Z,0.80
2022-11-10T16:17:04.087Z,0.77
2022-11-10T16:19:49.619Z,0.80
2022-11-10T16:22:35.051Z,0.90
2022-11-10T16:25:26.593Z,0.80
2022-11-10T16:28:22.175Z,0.88
2022-11-10T16:31:11.675Z,1.45
2022-11-10T16:33:57.477Z,1.70
2022-11-10T16:36:45.986Z,1.42
2022-11-10T16:39:32.053Z,1.33
2022-11-10T16:42:17.491Z,1.13
2022-11-10T16:45:03.168Z,1.10
2022-11-10T16:47:52.372Z,1.10
2022-11-10T16:50:38.473Z,1.25
2022-11-10T16:53:28.111Z,4.30
2022-11-10T16:56:18.593Z,2.83
2022-11-10T16:59:04.986Z,1.92
2022-11-10T17:01:53.128Z,1.85
2022-11-10T17:04:38.790Z,2.28
2022-11-10T17:07:27.066Z,2.55
2022-11-10T17:10:18.719Z,2.17
2022-11-10T17:13:04.345Z,1.35
2022-11-10T17:15:52.544Z,1.30
2022-11-10T17:18:38.457Z,1.27
2022-11-10T17:21:28.585Z,1.52
2022-11-10T17:24:18.856Z,1.23
2022-11-10T17:27:04.289Z,1.08
2022-11-10T17:29:49.865Z,1.00
2022-11-10T17:33:03.147Z,0.85
2022-11-10T17:35:48.437Z,1.05
2022-11-10T17:38:34.114Z,2.05
2022-11-10T17:41:20.606Z,0.90
2022-11-10T17:44:13.123Z,1.13
2022-11-10T17:49:44.479Z,1.13
2022-11-10T17:52:29.950Z,0.95
2022-11-10T17:55:29.765Z,0.93
2022-11-10T17:58:18.958Z,1.02
2022-11-10T18:01:17.417Z,1.20
2022-11-10T18:04:03.185Z,0.98
2022-11-10T18:06:48.726Z,1.05
2022-11-10T18:09:34.621Z,1.20
2022-11-10T18:12:22.834Z,1.15
2022-11-10T18:15:15.330Z,1.00
2022-11-10T18:18:01.439Z,2.03
2022-11-10T18:20:47.268Z,1.70
2022-11-10T18:23:33.419Z,2.13
2022-11-10T18:26:18.802Z,1.88
2022-11-10T18:29:04.525Z,1.88
2022-11-10T18:31:50.449Z,1.60
2022-11-10T18:34:35.888Z,1.60
2022-11-10T18:37:21.587Z,3.10
2022-11-10T18:40:07.786Z,3.28
2022-11-10T18:43:01.862Z,2.63
2022-11-10T18:45:54.948Z,1.95
2022-11-10T18:48:41.202Z,2.33
2022-11-10T18:51:27.214Z,1.65
2022-11-10T18:54:13.521Z,1.83
2022-11-10T18:56:59.318Z,1.70
2022-11-10T18:59:45.303Z,2.00
2022-11-10T19:02:30.860Z,2.33
2022-11-10T19:05:16.389Z,2.63
2022-11-10T19:08:02.430Z,3.00
2022-11-10T19:10:47.955Z,3.58
2022-11-10T19:13:33.424Z,3.67
2022-11-10T19:16:19.591Z,3.75
2022-11-10T19:19:05.130Z,3.05
2022-11-10T19:21:51.101Z,3.45
2022-11-10T19:24:53.808Z,3.70
2022-11-10T19:27:41.907Z,2.30
2022-11-10T19:30:27.488Z,2.60
2022-11-10T19:33:12.781Z,2.10
2022-11-10T19:36:03.813Z,2.03
2022-11-10T19:38:49.753Z,1.40
2022-11-10T19:41:36.838Z,1.02
2022-11-10T19:44:22.640Z,0.98
2022-11-10T19:47:08.417Z,0.93
2022-11-10T19:49:53.968Z,1.05
2022-11-10T19:52:39.467Z,1.33
2022-11-10T19:55:25.099Z,1.70
2022-11-10T19:58:10.591Z,1.45
2022-11-10T20:00:56.494Z,2.00
2022-11-10T20:03:43.312Z,2.30
2022-11-10T20:06:28.800Z,2.25
2022-11-10T20:09:14.414Z,3.55
2022-11-10T20:11:59.647Z,5.15
2022-11-10T20:14:45.126Z,4.28
2022-11-10T20:17:30.673Z,5.30
2022-11-10T20:20:16.687Z,7.03
2022-11-10T20:23:03.264Z,7.22
2022-11-10T20:25:48.790Z,6.85
2022-11-10T20:28:37.341Z,5.68
2022-11-10T20:31:26.224Z,5.25
2022-11-10T20:34:11.782Z,4.40
2022-11-10T20:36:57.401Z,4.68
2022-11-10T20:39:42.870Z,4.18
2022-11-10T20:42:28.474Z,4.20
2022-11-10T20:45:14.670Z,3.25
2022-11-10T20:48:00.465Z,2.30
2022-11-10T20:50:45.947Z,2.90
2022-11-10T20:53:31.380Z,3.03
2022-11-10T20:56:17.012Z,2.47
2022-11-10T20:59:02.839Z,3.08
2022-11-10T21:01:48.608Z,2.72
2022-11-10T21:04:36.854Z,5.32
2022-11-10T21:07:27.460Z,3.20
2022-11-10T21:10:13.299Z,3.53
2022-11-10T21:12:58.760Z,2.80
2022-11-10T21:15:48.391Z,2.30
2022-11-10T21:18:37.439Z,2.30
2022-11-10T21:21:34.505Z,1.95
2022-11-10T21:24:20.920Z,3.00
2022-11-10T21:27:06.778Z,2.42
2022-11-10T21:29:52.918Z,3.85
2022-11-10T21:32:38.281Z,3.40
2022-11-10T21:35:23.831Z,3.65
2022-11-10T21:38:13.692Z,2.95
2022-11-10T21:40:59.006Z,3.17
2022-11-10T21:43:44.471Z,3.22
2022-11-10T21:46:29.895Z,4.00
2022-11-10T21:49:15.438Z,3.63
2022-11-10T21:52:00.971Z,3.90
2022-11-10T21:54:46.435Z,4.00
2022-11-10T21:57:32.182Z,3.65
2022-11-10T22:00:18.258Z,4.32
2022-11-10T22:03:05.809Z,3.42
2022-11-10T22:05:51.745Z,3.25
2022-11-10T22:08:38.529Z,3.33
2022-11-10T22:11:42.971Z,3.55
2022-11-10T22:14:48.937Z,3.63
2022-11-10T22:17:52.911Z,3.55
2022-11-10T22:20:38.380Z,3.33
2022-11-10T22:23:44.057Z,3.40
2022-11-10T22:26:29.775Z,3.30
2022-11-10T22:29:15.068Z,3.33
2022-11-10T22:32:01.401Z,2.72
2022-11-10T22:34:47.789Z,2.15
2022-11-10T22:37:33.376Z,3.70
2022-11-10T22:40:37.963Z,2.83
2022-11-10T22:43:42.472Z,5.18
2022-11-10T22:46:28.817Z,5.78
2022-11-10T22:49:16.684Z,6.38
2022-11-10T22:52:02.476Z,6.90
2022-11-10T22:54:47.760Z,6.75
2022-11-10T22:57:33.485Z,9.88
2022-11-10T23:00:19.086Z,6.07
2022-11-10T23:03:04.378Z,5.78
2022-11-10T23:05:56.152Z,5.65
2022-11-10T23:08:43.857Z,5.80
2022-11-10T23:11:32.020Z,7.78
2022-11-10T23:14:17.667Z,6.15
2022-11-10T23:17:03.258Z,6.72
2022-11-10T23:19:48.823Z,6.50
2022-11-10T23:22:34.316Z,5.57
2022-11-10T23:25:19.883Z,5.93
2022-11-10T23:28:05.487Z,5.57
2022-11-10T23:30:50.909Z,6.00
2022-11-10T23:33:38.187Z,5.03
2022-11-10T23:36:26.031Z,4.97
2022-11-10T23:39:13.144Z,5.03
2022-11-10T23:42:00.555Z,4.43
2022-11-10T23:44:46.130Z,4.15
2022-11-10T23:47:31.664Z,3.67
2022-11-10T23:50:17.171Z,3.85
2022-11-10T23:53:02.632Z,3.95
2022-11-10T23:56:01.355Z,5.32
2022-11-10T23:58:46.586Z,5.95
